Time;durP1;ratioP1;P1;durP2;ratioP2;P2;SDS_P1;SDS_P2;PMS_P1;PMS_P2;Temp;Humidity;BMP_temperature;BMP_pressure;BME280_temperature;BME280_humidity;BME280_pressure;Samples;Min_cycle;Max_cycle;Signal;HPM_P1;HPM_P2
2021/01/21 00:01:59;;;;;;;6.27;1.60;;;23.90;76.60;;;;;;5050623;28;20267;-69
2021/01/21 00:04:27;;;;;;;11.80;2.23;;;24.00;75.40;;;;;;5052061;28;20243;-70
2021/01/21 00:06:54;;;;;;;8.20;2.40;;;23.90;74.90;;;;;;5052215;28;20183;-68
2021/01/21 00:09:22;;;;;;;10.03;2.23;;;23.80;75.30;;;;;;5052616;28;20204;-69
2021/01/21 00:11:49;;;;;;;5.90;1.77;;;23.50;75.20;;;;;;5051269;28;20539;-69
2021/01/21 00:14:17;;;;;;;5.13;1.67;;;23.70;75.80;;;;;;5052917;28;20184;-68
2021/01/21 00:16:44;;;;;;;6.37;1.83;;;24.10;74.60;;;;;;5051396;28;20267;-69
2021/01/21 00:19:11;;;;;;;6.73;1.43;;;24.70;72.90;;;;;;5052711;28;20188;-68
2021/01/21 00:21:39;;;;;;;11.60;2.23;;;24.70;70.90;;;;;;5052453;28;20258;-67
2021/01/21 00:24:07;;;;;;;9.23;2.23;;;25.10;71.90;;;;;;5050620;28;20267;-68
2021/01/21 00:26:34;;;;;;;7.07;1.70;;;25.60;70.30;;;;;;5052633;28;20235;-71
2021/01/21 00:29:02;;;;;;;12.37;2.07;;;26.00;69.20;;;;;;5051842;28;20281;-70
2021/01/21 00:31:29;;;;;;;10.90;2.73;;;26.20;68.20;;;;;;5050720;28;20184;-69
2021/01/21 00:33:56;;;;;;;14.27;2.20;;;26.30;68.70;;;;;;5048488;28;20180;-70
2021/01/21 00:36:24;;;;;;;7.83;2.10;;;26.50;68.00;;;;;;5048884;28;20191;-67
2021/01/21 00:38:51;;;;;;;9.27;2.03;;;26.80;66.90;;;;;;5051650;28;20638;-68
2021/01/21 00:41:19;;;;;;;10.33;2.63;;;26.70;66.90;;;;;;5052320;28;20182;-68
2021/01/21 00:43:46;;;;;;;12.17;2.87;;;26.70;67.50;;;;;;5051009;28;20673;-69
2021/01/21 00:46:13;;;;;;;12.20;2.70;;;26.50;68.50;;;;;;5052863;28;20245;-69
2021/01/21 00:48:42;;;;;;;8.50;2.37;;;26.60;68.20;;;;;;5052332;28;20642;-70
2021/01/21 00:51:11;;;;;;;13.73;2.87;;;26.60;68.20;;;;;;5051530;28;20246;-69
2021/01/21 00:53:39;;;;;;;13.90;2.93;;;26.40;67.70;;;;;;5052254;28;20515;-71
2021/01/21 00:56:07;;;;;;;8.87;2.40;;;26.30;67.70;;;;;;5045138;28;20187;-69
2021/01/21 00:58:34;;;;;;;9.73;2.70;;;26.20;68.60;;;;;;5049259;28;20199;-69
2021/01/21 01:01:02;;;;;;;10.37;2.30;;;26.50;68.30;;;;;;5049211;28;20689;-70
2021/01/21 01:03:29;;;;;;;10.77;2.47;;;26.60;66.90;;;;;;5049804;28;20187;-71
2021/01/21 01:05:57;;;;;;;9.87;2.77;;;26.70;65.40;;;;;;5050881;28;20210;-69
2021/01/21 01:08:24;;;;;;;10.20;2.87;;;26.60;66.50;;;;;;5052520;28;20192;-68
2021/01/21 01:10:52;;;;;;;10.80;2.47;;;26.30;65.70;;;;;;5051260;28;20199;-69
2021/01/21 01:13:19;;;;;;;10.70;2.40;;;26.30;66.10;;;;;;5051715;28;20195;-68
2021/01/21 01:15:47;;;;;;;7.63;1.90;;;26.50;65.80;;;;;;5047441;28;20200;-70
2021/01/21 01:18:14;;;;;;;9.20;1.90;;;26.50;65.70;;;;;;5049731;28;20214;-68
2021/01/21 01:20:43;;;;;;;13.73;2.57;;;26.60;65.90;;;;;;5051032;28;20238;-68
2021/01/21 01:23:10;;;;;;;8.67;2.77;;;26.90;65.40;;;;;;5051747;28;20550;-69
2021/01/21 01:25:38;;;;;;;13.80;3.07;;;26.70;63.70;;;;;;5051370;28;20634;-69
2021/01/21 01:28:06;;;;;;;8.43;2.40;;;26.60;64.50;;;;;;5048949;28;20561;-69
2021/01/21 01:30:33;;;;;;;7.10;2.10;;;26.70;64.70;;;;;;5048971;28;20292;-68
2021/01/21 01:33:01;;;;;;;9.80;2.10;;;26.70;64.80;;;;;;5048212;28;20184;-69
2021/01/21 01:35:28;;;;;;;10.60;2.70;;;26.70;64.70;;;;;;5051499;28;20215;-70
2021/01/21 01:37:56;;;;;;;7.33;2.40;;;26.90;64.40;;;;;;5051034;28;20230;-68
2021/01/21 01:40:23;;;;;;;13.07;3.00;;;27.30;66.00;;;;;;5050766;28;20574;-69
2021/01/21 01:42:50;;;;;;;9.37;2.80;;;27.40;64.00;;;;;;5049495;28;20601;-70
2021/01/21 01:45:18;;;;;;;6.97;2.50;;;27.30;64.50;;;;;;5050221;28;20180;-70
2021/01/21 01:47:46;;;;;;;8.67;2.20;;;27.50;64.60;;;;;;5050338;28;20284;-67
2021/01/21 01:50:17;;;;;;;12.23;2.57;;;27.40;64.10;;;;;;5050066;28;20641;-70
2021/01/21 01:52:44;;;;;;;10.50;2.70;;;27.30;64.20;;;;;;5050358;28;20194;-69
2021/01/21 01:55:16;;;;;;;10.63;2.50;;;27.30;63.90;;;;;;5048605;28;20192;-69
2021/01/21 01:57:48;;;;;;;11.73;2.37;;;27.40;64.50;;;;;;5048465;28;20223;-70
2021/01/21 02:00:16;;;;;;;7.27;1.97;;;27.60;63.70;;;;;;5048493;28;20180;-69
2021/01/21 02:02:47;;;;;;;10.70;2.17;;;27.60;63.50;;;;;;5053297;28;20599;-69
2021/01/21 02:05:15;;;;;;;8.97;2.50;;;27.50;63.80;;;;;;5052561;28;20207;-69
2021/01/21 02:07:44;;;;;;;13.83;2.60;;;27.80;63.50;;;;;;5055198;28;20635;-69
2021/01/21 02:10:13;;;;;;;8.60;2.50;;;27.60;63.50;;;;;;5055033;28;20211;-69
2021/01/21 02:13:02;;;;;;;8.97;2.43;;;27.50;63.60;;;;;;5054722;28;20238;-68
2021/01/21 02:15:56;;;;;;;9.33;2.30;;;27.60;64.30;;;;;;5049246;28;20275;-70
2021/01/21 02:18:43;;;;;;;11.97;2.30;;;27.80;63.80;;;;;;5052072;28;20188;-70
2021/01/21 02:21:39;;;;;;;13.57;2.67;;;28.00;63.40;;;;;;5054338;28;20578;-71
2021/01/21 02:24:27;;;;;;;7.57;2.10;;;27.90;63.10;;;;;;5033403;28;20261;-71
2021/01/21 02:27:06;;;;;;;10.03;2.50;;;27.90;63.20;;;;;;5052719;28;20215;-69
2021/01/21 02:29:38;;;;;;;7.00;1.87;;;28.10;63.30;;;;;;5047578;28;21341;-70
2021/01/21 02:32:05;;;;;;;10.67;2.33;;;27.80;63.60;;;;;;5054006;28;20221;-70
2021/01/21 02:34:38;;;;;;;15.37;2.80;;;27.90;62.50;;;;;;5056275;28;20186;-70
2021/01/21 02:37:10;;;;;;;11.07;2.50;;;27.80;63.20;;;;;;5049463;28;20208;-70
2021/01/21 02:39:39;;;;;;;12.00;1.90;;;27.70;63.60;;;;;;5053696;28;20674;-70
2021/01/21 02:42:07;;;;;;;10.57;2.90;;;27.80;63.20;;;;;;5051606;28;20222;-69
2021/01/21 02:44:34;;;;;;;10.97;2.10;;;28.00;62.80;;;;;;5053486;28;20192;-70
2021/01/21 02:47:02;;;;;;;7.67;2.23;;;27.80;62.60;;;;;;5053475;28;20187;-69
2021/01/21 02:49:29;;;;;;;12.70;2.20;;;27.80;62.70;;;;;;5054816;28;20230;-70
2021/01/21 02:52:02;;;;;;;8.93;2.30;;;27.70;63.40;;;;;;5053126;28;20572;-69
2021/01/21 02:54:57;;;;;;;7.93;2.20;;;27.80;63.20;;;;;;5046853;28;20271;-70
2021/01/21 02:57:48;;;;;;;11.30;2.10;;;27.70;62.90;;;;;;5044320;28;20200;-69
2021/01/21 03:00:17;;;;;;;8.80;2.40;;;27.90;63.30;;;;;;5041947;28;20192;-69
2021/01/21 03:02:54;;;;;;;12.90;2.00;;;27.80;63.60;;;;;;5050142;28;20180;-69
2021/01/21 03:05:22;;;;;;;9.40;2.43;;;28.00;63.40;;;;;;5046438;28;20179;-69
2021/01/21 03:07:51;;;;;;;8.87;2.10;;;27.70;62.50;;;;;;5052101;28;20182;-68
2021/01/21 03:10:20;;;;;;;7.50;1.97;;;27.80;63.10;;;;;;5045971;28;20307;-70
2021/01/21 03:13:00;;;;;;;13.90;2.60;;;28.10;62.50;;;;;;5051180;28;20282;-70
2021/01/21 03:15:28;;;;;;;9.40;2.40;;;28.10;62.10;;;;;;5049887;28;20275;-69
2021/01/21 03:17:55;;;;;;;8.03;2.13;;;28.00;62.10;;;;;;5052951;28;20184;-70
2021/01/21 03:20:23;;;;;;;10.37;2.17;;;28.20;61.90;;;;;;5051914;28;20557;-69
2021/01/21 03:22:50;;;;;;;16.97;2.20;;;28.20;61.70;;;;;;5053214;28;20508;-69
2021/01/21 03:25:18;;;;;;;11.57;2.23;;;28.30;60.80;;;;;;5053181;28;20210;-68
2021/01/21 03:27:45;;;;;;;6.47;2.00;;;28.20;60.80;;;;;;5053085;28;20184;-68
2021/01/21 03:30:13;;;;;;;8.50;2.63;;;28.10;60.70;;;;;;5052586;28;20211;-71
2021/01/21 03:32:40;;;;;;;6.43;1.90;;;28.10;61.40;;;;;;5055835;28;20190;-69
2021/01/21 03:35:09;;;;;;;9.90;2.47;;;28.00;61.10;;;;;;5053287;28;20634;-71
2021/01/21 03:37:36;;;;;;;8.63;2.30;;;28.00;61.10;;;;;;5053843;28;20184;-69
2021/01/21 03:40:04;;;;;;;9.23;2.70;;;28.00;61.10;;;;;;5054028;28;20534;-69
2021/01/21 03:42:32;;;;;;;5.83;2.00;;;28.00;61.50;;;;;;5054468;28;20191;-69
2021/01/21 03:44:59;;;;;;;10.37;2.50;;;28.30;60.90;;;;;;5044806;28;20207;-69
2021/01/21 03:47:26;;;;;;;6.23;2.30;;;28.40;60.80;;;;;;5045995;28;20177;-68
2021/01/21 03:49:54;;;;;;;9.63;2.33;;;28.30;60.80;;;;;;5052504;28;20215;-68
2021/01/21 03:52:21;;;;;;;10.33;2.77;;;28.30;61.20;;;;;;5053447;28;20180;-69
2021/01/21 03:54:48;;;;;;;9.83;2.00;;;28.10;61.40;;;;;;5053452;28;20176;-67
2021/01/21 03:57:16;;;;;;;10.67;2.20;;;28.30;61.60;;;;;;5049448;28;20398;-69
2021/01/21 03:59:43;;;;;;;10.33;2.40;;;28.00;61.80;;;;;;5050813;28;20215;-68
2021/01/21 04:02:11;;;;;;;7.03;2.00;;;28.00;61.30;;;;;;5053371;28;20176;-70
2021/01/21 04:04:38;;;;;;;8.23;2.27;;;28.60;60.70;;;;;;5052423;28;20243;-72
2021/01/21 04:07:06;;;;;;;8.10;4.00;;;28.30;60.60;;;;;;5052894;28;20537;-69
2021/01/21 04:09:33;;;;;;;6.10;2.20;;;28.10;61.70;;;;;;5051100;28;20226;-70
2021/01/21 04:12:00;;;;;;;9.80;2.17;;;28.30;62.40;;;;;;5052294;28;20175;-68
2021/01/21 04:14:27;;;;;;;7.63;2.33;;;28.70;60.30;;;;;;5047233;28;20191;-71
2021/01/21 04:16:55;;;;;;;7.53;2.20;;;28.50;60.30;;;;;;5051450;28;20184;-69
2021/01/21 04:19:22;;;;;;;9.67;2.17;;;28.60;60.20;;;;;;5052180;28;20178;-70
2021/01/21 04:21:51;;;;;;;10.50;2.33;;;28.40;59.90;;;;;;5052850;28;20206;-69
2021/01/21 04:24:18;;;;;;;6.00;2.07;;;28.80;59.70;;;;;;5052661;28;20661;-69
2021/01/21 04:26:45;;;;;;;6.47;2.10;;;28.80;60.00;;;;;;5052481;28;20215;-69
2021/01/21 04:29:13;;;;;;;8.77;2.47;;;28.70;59.90;;;;;;5051444;28;20199;-68
2021/01/21 04:31:40;;;;;;;7.77;2.23;;;29.00;59.90;;;;;;5052500;28;20191;-68
2021/01/21 04:34:07;;;;;;;12.80;2.40;;;29.10;59.70;;;;;;5051849;28;20669;-70
2021/01/21 04:36:35;;;;;;;6.50;1.73;;;29.60;59.20;;;;;;5052404;28;20654;-68
2021/01/21 04:39:03;;;;;;;6.87;1.83;;;29.40;57.60;;;;;;5052470;28;20184;-69
2021/01/21 04:41:31;;;;;;;9.57;1.93;;;29.20;58.40;;;;;;5051478;28;20262;-68
2021/01/21 04:43:58;;;;;;;7.57;2.10;;;29.20;57.90;;;;;;5052161;28;20188;-69
2021/01/21 04:46:26;;;;;;;7.03;1.80;;;29.40;58.10;;;;;;5052598;28;20178;-68
2021/01/21 04:48:56;;;;;;;10.93;2.13;;;29.50;57.90;;;;;;5051771;28;20274;-68
2021/01/21 04:51:24;;;;;;;12.93;2.20;;;29.70;57.10;;;;;;5055418;28;20181;-68
2021/01/21 04:53:57;;;;;;;11.50;2.17;;;29.20;57.50;;;;;;5050816;28;20180;-68
2021/01/21 04:56:38;;;;;;;8.90;2.30;;;29.30;58.00;;;;;;5050620;28;20203;-68
2021/01/21 04:59:10;;;;;;;9.33;2.00;;;29.60;57.50;;;;;;5051994;28;20190;-69
2021/01/21 05:01:40;;;;;;;6.37;2.10;;;29.40;58.20;;;;;;5051657;28;20226;-70
2021/01/21 05:04:08;;;;;;;7.60;2.00;;;29.30;58.10;;;;;;5052158;28;20298;-69
2021/01/21 05:06:36;;;;;;;10.57;2.20;;;29.30;57.60;;;;;;5052325;28;20176;-67
2021/01/21 05:09:04;;;;;;;9.73;1.90;;;29.00;57.80;;;;;;5052383;28;20681;-68
2021/01/21 05:11:31;;;;;;;7.97;2.17;;;28.90;58.20;;;;;;5051521;28;20274;-68
2021/01/21 05:13:58;;;;;;;7.77;2.37;;;28.70;59.10;;;;;;5052154;28;20199;-69
2021/01/21 05:16:27;;;;;;;8.43;2.27;;;29.00;58.60;;;;;;5051111;28;20297;-68
2021/01/21 05:18:55;;;;;;;5.80;2.10;;;28.50;58.10;;;;;;5051357;28;20680;-68
2021/01/21 05:21:23;;;;;;;6.40;1.70;;;28.70;58.50;;;;;;5052046;28;20245;-70
2021/01/21 05:23:55;;;;;;;12.33;2.27;;;29.10;58.10;;;;;;5052190;28;20180;-66
2021/01/21 05:26:25;;;;;;;8.87;2.30;;;29.00;58.00;;;;;;5051401;28;20342;-68
2021/01/21 05:28:53;;;;;;;8.17;2.13;;;28.90;58.60;;;;;;5052001;28;20176;-69
2021/01/21 05:31:21;;;;;;;12.23;2.93;;;28.70;59.10;;;;;;5054477;28;20642;-70
2021/01/21 05:33:49;;;;;;;8.33;1.80;;;28.90;59.10;;;;;;5056158;28;20226;-69
2021/01/21 05:36:17;;;;;;;6.53;2.30;;;28.90;58.30;;;;;;5049719;28;20194;-68
2021/01/21 05:38:57;;;;;;;7.77;1.73;;;29.30;58.50;;;;;;5055258;28;20241;-68
2021/01/21 05:41:26;;;;;;;7.13;2.07;;;29.60;58.40;;;;;;5054175;28;20275;-69
2021/01/21 05:43:54;;;;;;;9.97;1.77;;;30.00;58.20;;;;;;5046032;28;20211;-70
2021/01/21 05:46:21;;;;;;;7.83;2.40;;;29.70;57.80;;;;;;5050982;28;20176;-70
2021/01/21 05:48:49;;;;;;;8.60;2.65;;;29.80;58.90;;;;;;5055261;28;20530;-71
2021/01/21 05:51:17;;;;;;;6.60;2.77;;;29.30;58.60;;;;;;5054396;28;20180;-71
2021/01/21 05:53:45;;;;;;;9.30;2.07;;;29.20;59.50;;;;;;5055694;28;20676;-70
2021/01/21 05:56:12;;;;;;;9.20;1.90;;;28.40;61.20;;;;;;5055722;28;20642;-71
2021/01/21 05:58:42;;;;;;;7.27;2.10;;;28.30;62.00;;;;;;5055226;28;20180;-70
2021/01/21 06:01:10;;;;;;;4.73;1.80;;;28.10;62.90;;;;;;5055968;28;20192;-69
2021/01/21 06:03:38;;;;;;;11.00;2.30;;;28.00;61.90;;;;;;5046784;28;20230;-71
2021/01/21 06:06:11;;;;;;;6.67;1.77;;;28.00;62.40;;;;;;5054762;28;20211;-68
2021/01/21 06:08:40;;;;;;;9.53;2.20;;;28.60;60.80;;;;;;5052385;28;20188;-71
2021/01/21 06:11:11;;;;;;;4.50;1.83;;;28.70;61.20;;;;;;5054324;28;20188;-69
2021/01/21 06:13:41;;;;;;;5.30;1.50;;;29.10;60.10;;;;;;5046819;28;20194;-69
2021/01/21 06:16:09;;;;;;;13.30;2.20;;;29.40;59.60;;;;;;5045279;28;20195;-70
2021/01/21 06:18:37;;;;;;;9.50;2.80;;;29.30;59.30;;;;;;5051568;28;20184;-69
2021/01/21 06:21:07;;;;;;;9.67;2.47;;;29.00;60.50;;;;;;5043824;28;20190;-69
2021/01/21 06:23:36;;;;;;;6.53;2.10;;;29.40;60.20;;;;;;5054014;28;20237;-68
2021/01/21 06:26:03;;;;;;;5.80;1.70;;;29.40;59.90;;;;;;5054897;28;20227;-68
2021/01/21 06:28:32;;;;;;;7.47;2.37;;;29.40;59.40;;;;;;5054919;28;20583;-69
2021/01/21 06:31:00;;;;;;;10.67;2.23;;;29.20;60.00;;;;;;5055140;28;20227;-68
2021/01/21 06:33:33;;;;;;;9.87;2.10;;;29.00;60.30;;;;;;5054455;28;20237;-68
2021/01/21 06:36:03;;;;;;;9.10;2.03;;;28.90;60.40;;;;;;5045375;28;20187;-68
2021/01/21 06:38:43;;;;;;;8.80;2.63;;;29.40;60.40;;;;;;5049520;28;20176;-69
2021/01/21 06:41:15;;;;;;;10.40;2.13;;;29.30;60.30;;;;;;5048847;28;20265;-69
2021/01/21 06:43:44;;;;;;;7.60;1.93;;;28.90;60.70;;;;;;5054161;28;20639;-70
2021/01/21 06:46:14;;;;;;;9.70;2.33;;;28.90;60.60;;;;;;5053762;28;20657;-69
2021/01/21 06:48:51;;;;;;;10.27;3.07;;;28.40;61.40;;;;;;5054168;28;20254;-69
2021/01/21 06:51:20;;;;;;;12.03;5.63;;;28.40;61.10;;;;;;5052088;28;20176;-68
2021/01/21 06:53:50;;;;;;;7.00;1.83;;;28.40;61.30;;;;;;5048422;28;20262;-68
2021/01/21 06:56:17;;;;;;;8.07;1.97;;;28.20;61.80;;;;;;5043589;28;20290;-69
2021/01/21 06:58:54;;;;;;;6.10;1.83;;;28.20;61.60;;;;;;5051063;28;20184;-71
2021/01/21 07:01:34;;;;;;;11.27;2.20;;;28.70;61.00;;;;;;5054091;28;20187;-68
2021/01/21 07:04:21;;;;;;;7.57;1.93;;;28.40;60.30;;;;;;5063446;28;20526;-70
2021/01/21 07:06:54;;;;;;;7.87;2.17;;;28.40;60.30;;;;;;5042401;28;20538;-69
2021/01/21 07:09:23;;;;;;;10.10;1.50;;;28.50;61.50;;;;;;5051387;28;20208;-69
2021/01/21 07:11:55;;;;;;;14.43;2.33;;;28.50;61.00;;;;;;5053331;28;20184;-68
2021/01/21 07:14:26;;;;;;;6.50;2.20;;;28.30;62.30;;;;;;5042820;28;20180;-71
2021/01/21 07:17:01;;;;;;;5.43;2.17;;;27.90;62.20;;;;;;5053284;28;20180;-71
2021/01/21 07:19:43;;;;;;;6.27;2.00;;;28.00;62.70;;;;;;5046039;28;20243;-70
2021/01/21 07:22:24;;;;;;;14.60;2.03;;;28.00;62.80;;;;;;5051052;28;20527;-71
2021/01/21 07:25:05;;;;;;;14.10;3.07;;;27.90;63.10;;;;;;5053846;28;20186;-70
2021/01/21 07:27:35;;;;;;;11.77;3.70;;;27.60;63.70;;;;;;5053447;28;20564;-69
2021/01/21 07:30:20;;;;;;;8.37;2.03;;;27.70;63.30;;;;;;5037869;28;20750;-71
2021/01/21 07:32:48;;;;;;;9.07;1.83;;;27.40;64.40;;;;;;5052722;28;20233;-71
2021/01/21 07:35:38;;;;;;;9.03;2.30;;;27.20;64.80;;;;;;5052745;28;20168;-70
2021/01/21 07:38:06;;;;;;;9.93;1.80;;;27.00;65.20;;;;;;5042084;28;20638;-71
2021/01/21 07:40:49;;;;;;;11.30;2.20;;;26.40;66.70;;;;;;5053109;28;20210;-72
2021/01/21 07:43:17;;;;;;;6.37;2.20;;;26.10;68.20;;;;;;5052531;28;20183;-69
2021/01/21 07:45:44;;;;;;;11.27;2.10;;;25.80;69.00;;;;;;5052778;28;20547;-70
2021/01/21 07:48:23;;;;;;;9.83;2.10;;;25.50;70.40;;;;;;5053745;28;20270;-69
2021/01/21 07:50:52;;;;;;;8.43;2.40;;;25.20;72.00;;;;;;5052316;28;20535;-70
2021/01/21 07:53:24;;;;;;;9.73;2.03;;;25.10;73.10;;;;;;5052989;28;20175;-69
2021/01/21 07:55:54;;;;;;;12.93;2.93;;;25.00;73.10;;;;;;5053430;28;20202;-73
2021/01/21 07:58:40;;;;;;;12.07;2.43;;;24.90;73.60;;;;;;5053749;28;20642;-70
2021/01/21 08:01:12;;;;;;;9.00;2.53;;;24.90;74.30;;;;;;5053329;28;20249;-71
2021/01/21 08:03:46;;;;;;;7.20;2.10;;;24.80;75.40;;;;;;5053375;28;20609;-69
2021/01/21 08:06:17;;;;;;;14.17;2.43;;;24.60;75.40;;;;;;5053334;28;20258;-71
2021/01/21 08:08:47;;;;;;;11.67;2.87;;;24.50;76.30;;;;;;5044524;28;20610;-70
2021/01/21 08:11:17;;;;;;;7.50;2.03;;;24.30;78.40;;;;;;5033419;28;20570;-71
2021/01/21 08:13:48;;;;;;;12.43;2.93;;;24.30;78.50;;;;;;5052882;28;20191;-70
2021/01/21 08:16:17;;;;;;;14.60;3.00;;;24.30;79.10;;;;;;5051313;28;20187;-71
2021/01/21 08:18:45;;;;;;;15.20;4.70;;;24.30;79.30;;;;;;5052303;28;20237;-71
2021/01/21 08:21:26;;;;;;;15.37;2.50;;;24.10;80.50;;;;;;5052542;28;20179;-71
2021/01/21 08:23:58;;;;;;;15.60;2.80;;;24.10;80.80;;;;;;5053003;28;20266;-71
2021/01/21 08:26:30;;;;;;;9.37;2.33;;;23.90;80.80;;;;;;5052998;28;20285;-70
2021/01/21 08:28:58;;;;;;;12.23;2.97;;;23.90;81.60;;;;;;5052629;28;20198;-71
2021/01/21 08:31:38;;;;;;;9.87;2.70;;;23.80;82.10;;;;;;5052942;28;20194;-69
2021/01/21 08:34:16;;;;;;;11.23;2.03;;;23.80;82.00;;;;;;5052687;28;20662;-71
2021/01/21 08:36:45;;;;;;;9.23;2.23;;;23.70;82.20;;;;;;5051651;28;20191;-71
2021/01/21 08:39:13;;;;;;;9.80;3.90;;;23.50;82.70;;;;;;5052907;28;20188;-72
2021/01/21 08:41:43;;;;;;;11.00;2.20;;;23.50;83.40;;;;;;5051714;28;20223;-70
2021/01/21 08:44:20;;;;;;;13.80;2.13;;;23.40;83.60;;;;;;5040737;28;20208;-69
2021/01/21 08:46:59;;;;;;;9.20;1.73;;;23.40;84.00;;;;;;5041331;28;20194;-70
2021/01/21 08:49:27;;;;;;;12.87;2.23;;;23.30;84.60;;;;;;5049958;28;20204;-69
2021/01/21 08:52:11;;;;;;;13.23;2.53;;;23.40;84.90;;;;;;5052789;28;20211;-71
2021/01/21 08:54:51;;;;;;;8.80;1.93;;;23.40;85.60;;;;;;5052501;28;20541;-70
2021/01/21 08:57:23;;;;;;;19.23;2.57;;;23.30;85.90;;;;;;5052617;28;20668;-72
2021/01/21 08:59:50;;;;;;;10.97;2.50;;;23.20;85.80;;;;;;5052688;28;20180;-69
2021/01/21 09:02:41;;;;;;;10.17;2.03;;;23.20;86.10;;;;;;5052473;28;20588;-70
2021/01/21 09:05:10;;;;;;;9.83;2.10;;;23.10;86.00;;;;;;5029916;28;20201;-69
2021/01/21 09:07:37;;;;;;;14.37;1.93;;;23.10;86.50;;;;;;5037056;28;20186;-69
2021/01/21 09:10:13;;;;;;;9.97;1.90;;;23.10;86.80;;;;;;5045680;28;20273;-70
2021/01/21 09:12:41;;;;;;;9.67;2.43;;;23.00;86.90;;;;;;5047998;28;20183;-69
2021/01/21 09:15:10;;;;;;;16.17;5.30;;;22.90;87.50;;;;;;5054532;28;20245;-69
2021/01/21 09:17:39;;;;;;;10.70;3.87;;;22.90;87.80;;;;;;5051258;28;20259;-70
2021/01/21 09:20:27;;;;;;;14.33;1.90;;;22.90;88.10;;;;;;5051273;28;20229;-71
2021/01/21 09:22:54;;;;;;;12.93;2.20;;;22.90;88.30;;;;;;5031646;28;20658;-69
2021/01/21 09:25:28;;;;;;;16.00;2.53;;;22.80;88.80;;;;;;5032346;28;20186;-70
2021/01/21 09:27:57;;;;;;;8.43;2.00;;;22.80;89.30;;;;;;5036907;28;20255;-71
2021/01/21 09:30:25;;;;;;;14.40;1.90;;;22.80;89.60;;;;;;5050644;28;20219;-71
2021/01/21 09:32:52;;;;;;;9.60;2.73;;;22.80;90.00;;;;;;5051851;28;20229;-70
2021/01/21 09:35:22;;;;;;;14.67;2.37;;;22.70;90.10;;;;;;5052303;28;20645;-70
2021/01/21 09:37:53;;;;;;;15.43;2.40;;;22.70;90.30;;;;;;5042698;28;20181;-70
2021/01/21 09:40:25;;;;;;;11.57;2.17;;;22.70;90.30;;;;;;5032594;28;20681;-71
2021/01/21 09:42:55;;;;;;;11.47;2.10;;;22.70;90.30;;;;;;5031771;28;20591;-72
2021/01/21 09:45:24;;;;;;;12.90;2.07;;;22.70;90.40;;;;;;5036653;28;20183;-71
2021/01/21 09:47:52;;;;;;;14.73;2.27;;;22.70;90.30;;;;;;5052152;28;20175;-69
2021/01/21 09:50:21;;;;;;;12.93;2.47;;;22.70;90.40;;;;;;5051931;28;20350;-71
2021/01/21 09:52:49;;;;;;;10.90;1.93;;;22.60;90.50;;;;;;5050586;28;20179;-70
2021/01/21 09:55:17;;;;;;;12.67;2.27;;;22.60;90.50;;;;;;5051084;28;20184;-71
2021/01/21 09:57:45;;;;;;;12.37;2.63;;;22.60;90.60;;;;;;5052082;28;20184;-70
2021/01/21 10:00:14;;;;;;;14.17;1.87;;;22.60;90.60;;;;;;5050989;28;20686;-72
2021/01/21 10:02:41;;;;;;;10.30;2.40;;;22.60;90.70;;;;;;5051656;28;20180;-70
2021/01/21 10:05:09;;;;;;;11.17;2.70;;;22.60;90.80;;;;;;5045562;28;20188;-70
2021/01/21 10:07:36;;;;;;;11.03;2.47;;;22.60;90.90;;;;;;5035010;28;20581;-69
2021/01/21 10:10:05;;;;;;;9.93;2.00;;;22.60;91.10;;;;;;5039523;28;20519;-70
2021/01/21 10:12:33;;;;;;;16.93;3.00;;;22.50;91.20;;;;;;5035922;28;20291;-70
2021/01/21 10:15:01;;;;;;;10.03;2.27;;;22.60;91.30;;;;;;5050270;28;20195;-70
2021/01/21 10:17:28;;;;;;;16.37;2.37;;;22.60;91.30;;;;;;5054341;28;20183;-69
2021/01/21 10:19:56;;;;;;;12.10;2.87;;;22.50;91.60;;;;;;5055562;28;20179;-70
2021/01/21 10:22:23;;;;;;;12.83;2.70;;;22.50;91.70;;;;;;5050569;28;20246;-70
2021/01/21 10:24:50;;;;;;;14.50;2.80;;;22.50;91.70;;;;;;5035443;28;20172;-68
2021/01/21 10:27:20;;;;;;;12.07;2.23;;;22.50;91.70;;;;;;5042764;28;20220;-69
2021/01/21 10:29:47;;;;;;;17.80;3.50;;;22.50;91.70;;;;;;5045535;28;20286;-68
2021/01/21 10:32:15;;;;;;;9.90;2.03;;;22.50;91.90;;;;;;5054296;28;20180;-71
2021/01/21 10:34:42;;;;;;;16.33;3.03;;;22.50;91.70;;;;;;5054863;28;20207;-68
2021/01/21 10:37:09;;;;;;;18.03;2.40;;;22.40;91.90;;;;;;5053049;28;20208;-72
2021/01/21 10:39:37;;;;;;;10.93;2.47;;;22.40;92.10;;;;;;5055199;28;20188;-71
2021/01/21 10:42:05;;;;;;;11.77;2.50;;;22.40;92.20;;;;;;5054640;28;20179;-68
2021/01/21 10:44:32;;;;;;;11.83;2.60;;;22.40;92.30;;;;;;5055751;28;20184;-69
2021/01/21 10:46:59;;;;;;;17.03;2.93;;;22.30;92.50;;;;;;5054578;28;20191;-69
2021/01/21 10:49:28;;;;;;;16.97;2.70;;;22.40;92.50;;;;;;5054681;28;20215;-70
2021/01/21 10:51:58;;;;;;;12.80;3.60;;;22.30;92.50;;;;;;5055018;28;20191;-69
2021/01/21 10:54:26;;;;;;;20.43;3.40;;;22.40;92.70;;;;;;5055631;28;20591;-69
2021/01/21 10:56:57;;;;;;;12.20;2.60;;;22.40;92.80;;;;;;5054931;28;20535;-68
2021/01/21 10:59:24;;;;;;;13.30;2.10;;;22.30;92.70;;;;;;5044253;28;20261;-72
2021/01/21 11:01:52;;;;;;;16.93;2.67;;;22.30;92.70;;;;;;5052209;28;20656;-71
2021/01/21 11:04:19;;;;;;;17.43;2.80;;;22.30;92.80;;;;;;5053299;28;20188;-72
2021/01/21 11:06:46;;;;;;;12.10;3.00;;;22.40;92.80;;;;;;5054810;28;20548;-70
2021/01/21 11:09:14;;;;;;;12.87;2.30;;;22.30;92.60;;;;;;5054860;28;20557;-70
2021/01/21 11:11:41;;;;;;;11.87;2.77;;;22.30;92.80;;;;;;5054575;28;20202;-69
2021/01/21 11:14:09;;;;;;;15.47;2.60;;;22.30;92.70;;;;;;5054789;28;20187;-70
2021/01/21 11:16:36;;;;;;;17.67;2.80;;;22.30;92.80;;;;;;5047650;28;20222;-71
2021/01/21 11:19:03;;;;;;;16.20;2.70;;;22.30;92.80;;;;;;5052868;28;20218;-71
2021/01/21 11:21:31;;;;;;;17.07;2.87;;;22.30;93.00;;;;;;5054863;28;20600;-71
2021/01/21 11:23:58;;;;;;;17.10;3.27;;;22.20;93.00;;;;;;5053385;28;20525;-71
2021/01/21 11:26:26;;;;;;;14.30;3.10;;;22.30;93.10;;;;;;5053311;28;20227;-69
2021/01/21 11:28:53;;;;;;;14.13;3.00;;;22.20;93.30;;;;;;5053653;28;20258;-70
2021/01/21 11:31:20;;;;;;;17.10;3.37;;;22.20;93.30;;;;;;5054536;28;20192;-70
2021/01/21 11:33:48;;;;;;;13.77;2.50;;;22.20;93.20;;;;;;5053714;28;20214;-68
2021/01/21 11:36:15;;;;;;;16.27;3.37;;;22.10;93.30;;;;;;5054019;28;20552;-69
2021/01/21 11:38:42;;;;;;;14.83;3.27;;;22.10;93.70;;;;;;5043530;28;20562;-71
2021/01/21 11:41:10;;;;;;;18.10;3.67;;;22.10;93.50;;;;;;5051143;28;20176;-70
2021/01/21 11:43:37;;;;;;;14.07;2.73;;;22.10;93.60;;;;;;5051821;28;20629;-71
2021/01/21 11:46:04;;;;;;;12.73;3.00;;;22.10;93.70;;;;;;5053890;28;20218;-69
2021/01/21 11:48:32;;;;;;;18.27;3.47;;;22.10;93.80;;;;;;5053686;28;20271;-69
2021/01/21 11:50:59;;;;;;;15.70;3.87;;;22.10;93.80;;;;;;5053065;28;20243;-70
2021/01/21 11:53:27;;;;;;;15.00;3.50;;;22.10;93.80;;;;;;5052761;28;20274;-69
2021/01/21 11:55:54;;;;;;;19.60;3.20;;;22.00;94.00;;;;;;5053502;28;20192;-71
2021/01/21 11:58:21;;;;;;;14.67;3.17;;;22.00;94.10;;;;;;5050915;28;20180;-69
2021/01/21 12:00:49;;;;;;;15.90;3.47;;;22.00;94.10;;;;;;5040786;28;20180;-69
2021/01/21 12:03:16;;;;;;;14.23;3.40;;;22.00;94.30;;;;;;5043968;28;20180;-69
2021/01/21 12:05:43;;;;;;;21.53;3.33;;;22.00;94.40;;;;;;5053062;28;20191;-70
2021/01/21 12:08:11;;;;;;;19.07;3.60;;;22.00;94.40;;;;;;5053098;28;20212;-70
2021/01/21 12:10:38;;;;;;;21.60;4.67;;;22.00;94.40;;;;;;5052842;28;20739;-68
2021/01/21 12:13:06;;;;;;;18.03;3.80;;;22.00;94.40;;;;;;5052715;28;20180;-68
2021/01/21 12:15:33;;;;;;;19.13;4.50;;;22.00;94.70;;;;;;5053113;28;20210;-69
2021/01/21 12:18:00;;;;;;;13.83;3.83;;;22.00;94.50;;;;;;5052230;28;20204;-68
2021/01/21 12:20:28;;;;;;;22.03;3.60;;;22.00;94.60;;;;;;5051387;28;20176;-69
2021/01/21 12:22:55;;;;;;;31.27;4.53;;;21.90;94.80;;;;;;5052698;28;20528;-70
2021/01/21 12:25:22;;;;;;;23.53;3.97;;;21.90;94.90;;;;;;5044228;28;20184;-68
2021/01/21 12:27:50;;;;;;;19.33;4.00;;;21.90;94.90;;;;;;5052931;28;20657;-70
2021/01/21 12:30:17;;;;;;;17.93;4.47;;;21.90;95.10;;;;;;5042665;28;20212;-69
2021/01/21 12:32:45;;;;;;;20.23;4.00;;;21.80;95.20;;;;;;5051940;28;20184;-68
2021/01/21 12:35:13;;;;;;;21.10;3.87;;;21.80;95.20;;;;;;5052468;28;20279;-69
2021/01/21 12:37:40;;;;;;;23.60;4.13;;;21.80;95.30;;;;;;5052735;28;20255;-68
2021/01/21 12:40:09;;;;;;;18.47;3.70;;;21.80;95.30;;;;;;5051519;28;20184;-68
2021/01/21 12:42:36;;;;;;;25.30;4.83;;;21.80;95.40;;;;;;5048406;28;20188;-69
2021/01/21 12:45:07;;;;;;;27.83;4.93;;;21.70;95.40;;;;;;5051911;28;20203;-70
2021/01/21 12:47:35;;;;;;;21.50;4.30;;;21.70;95.60;;;;;;5052679;28;20172;-69
2021/01/21 12:50:03;;;;;;;16.33;4.03;;;21.70;95.70;;;;;;5052067;28;20222;-69
2021/01/21 12:52:30;;;;;;;24.93;5.60;;;21.70;95.60;;;;;;5052435;28;20207;-71
2021/01/21 12:54:58;;;;;;;26.77;4.67;;;21.70;95.50;;;;;;5051280;28;20566;-71